Pagrindinis puslapis
METAR-TAF:

METAR-TAF

Oro uostai :

Sibiu, Rumunija

platuma: 45-48N, ilguma: 024-09E, Aukštis: 443 m

Dabartinis oras

Ataskaita buvo paskelbta 22 minutes, ne 21:30 UTC
Vėjas 2 kt nuo kintamojo kryptimis
Temperatūra -1°C
Drėgmė 69%
Slėgis 1044 hPa
Matomumas 10 km arba daugiau
Apsiniaukę ne aukštis 2200 ft

METAR: LRSB 202130Z VRB02KT 9999 OVC022 M01/M06 Q1044 R27/19//95

Laikas: 23:52 (21:52 UTC)

Prognozė

Ataskaita buvo paskelbta 4 valandos ir 52 minutes, ne 17:00 UTC
Prognozė galioja nuo 20 metu 18 UTC su 21 metu 18 UTC
Vėjas 4 kt nuo kintamojo kryptimis
Matomumas 10 km arba daugiau
Apsiniaukę ne aukštis 2500 ft
Laikinai
nuo 21 metu 00 UTC su 21 metu 06 UTC
Matomumas: 5000 m
rūkana

TAF: LRSB 201700Z 2018/2118 VRB04KT 9999 OVC025 TEMPO 2100/2106 5000 BR

Orai ataskaitas ir orų prognozės (METAR, TAF).

turimą stotys yra geltonos ir raudonos taškus žemėlapyje.

Perkelti pele per norėdami pamatyti stoties vardą.

Tada spustelėkite, norėdami matyti oro stebėjimo ir prognozės.

Norėdami pakeisti žemėlapį: spustelėkite ant žalios mygtukų su juodo kryžiaus žemyn,; žalią mygtuką su brūkšneliu, jei norite nutolinti; arba žalių rodyklių gretimoms žemėlapius.


METAR-TAF: